Time;durP1;ratioP1;P1;durP2;ratioP2;P2;SDS_P1;SDS_P2;PMS_P1;PMS_P2;Temp;Humidity;BMP_temperature;BMP_pressure;BME280_temperature;BME280_humidity;BME280_pressure;Samples;Min_cycle;Max_cycle;Signal;HPM_P1;HPM_P2
2023/10/03 00:01:47;;;;;;;22.17;17.90;;;19.20;88.30;;;;;;5001291;28;20271;-79
2023/10/03 00:04:19;;;;;;;22.33;18.77;;;19.20;88.30;;;;;;4978932;28;20212;-80
2023/10/03 00:06:57;;;;;;;21.00;18.00;;;19.10;88.60;;;;;;4989045;28;20223;-80
2023/10/03 00:09:25;;;;;;;20.13;17.17;;;19.10;88.70;;;;;;5003468;28;20217;-79
2023/10/03 00:11:57;;;;;;;20.30;17.97;;;19.10;88.70;;;;;;4983830;28;20232;-80
2023/10/03 00:14:27;;;;;;;23.90;19.30;;;19.00;88.80;;;;;;4980123;28;20291;-78
2023/10/03 00:16:58;;;;;;;20.07;17.90;;;19.10;88.90;;;;;;4978634;28;20293;-79
2023/10/03 00:19:53;;;;;;;21.70;19.30;;;19.00;88.90;;;;;;4980774;28;20268;-79
2023/10/03 00:22:23;;;;;;;21.47;19.23;;;19.00;88.90;;;;;;4981273;28;20217;-79
2023/10/03 00:24:59;;;;;;;22.53;19.97;;;19.00;89.00;;;;;;4983832;28;20218;-80
2023/10/03 00:27:28;;;;;;;31.13;22.00;;;19.00;89.10;;;;;;4979214;28;20646;-79
2023/10/03 00:29:56;;;;;;;27.30;21.07;;;19.00;89.20;;;;;;4983045;28;20220;-80
2023/10/03 00:32:27;;;;;;;26.77;21.17;;;18.90;89.40;;;;;;4994179;28;20227;-79
2023/10/03 00:35:04;;;;;;;23.43;19.43;;;18.90;89.60;;;;;;4994583;28;20210;-80
2023/10/03 00:37:32;;;;;;;22.80;20.23;;;18.90;90.00;;;;;;4977942;28;20205;-79
2023/10/03 00:42:54;;;;;;;23.10;18.67;;;18.80;90.10;;;;;;4979166;28;20642;-80
2023/10/03 00:45:31;;;;;;;22.37;17.50;;;18.80;90.10;;;;;;4980859;28;20248;-79
2023/10/03 00:48:06;;;;;;;22.80;18.33;;;18.70;90.10;;;;;;4993699;28;20553;-79
2023/10/03 00:50:42;;;;;;;26.73;17.33;;;18.70;90.10;;;;;;4975571;28;20274;-79
2023/10/03 00:53:16;;;;;;;18.00;16.10;;;18.80;90.10;;;;;;4975989;28;20290;-80
2023/10/03 00:55:59;;;;;;;21.73;17.77;;;18.70;90.00;;;;;;4983394;28;20198;-78
2023/10/03 00:58:31;;;;;;;22.90;16.60;;;18.70;90.00;;;;;;4973546;28;20643;-80
2023/10/03 01:00:59;;;;;;;23.00;18.67;;;18.70;89.80;;;;;;4959455;28;20277;-78
2023/10/03 01:03:32;;;;;;;22.17;19.00;;;18.60;89.50;;;;;;4979001;28;20239;-79
2023/10/03 01:06:08;;;;;;;18.27;16.27;;;18.60;89.50;;;;;;4980632;28;20202;-79
2023/10/03 01:08:46;;;;;;;19.07;16.80;;;18.60;89.60;;;;;;4986749;28;20202;-79
2023/10/03 01:11:28;;;;;;;20.40;17.30;;;18.60;89.60;;;;;;4982689;28;20202;-79
2023/10/03 01:14:00;;;;;;;23.60;17.50;;;18.50;89.50;;;;;;4959892;28;20227;-79
2023/10/03 01:16:33;;;;;;;19.50;17.50;;;18.50;89.60;;;;;;4996998;28;20201;-79
2023/10/03 01:19:14;;;;;;;21.63;19.37;;;18.50;89.60;;;;;;4993782;28;20198;-79
2023/10/03 01:21:53;;;;;;;23.00;19.53;;;18.50;89.50;;;;;;4969096;28;20207;-79
2023/10/03 01:24:36;;;;;;;24.47;19.20;;;18.40;89.50;;;;;;4965694;28;20216;-79
2023/10/03 01:27:10;;;;;;;22.90;19.20;;;18.40;89.70;;;;;;4975891;28;20511;-79
2023/10/03 01:29:38;;;;;;;22.37;19.77;;;18.40;89.90;;;;;;4989958;28;20210;-79
2023/10/03 01:32:12;;;;;;;22.10;17.77;;;18.40;90.10;;;;;;4993480;28;20219;-80
2023/10/03 01:34:41;;;;;;;22.20;17.80;;;18.30;90.20;;;;;;4982535;28;20217;-79
2023/10/03 01:37:09;;;;;;;22.53;17.80;;;18.30;90.20;;;;;;4981545;28;20208;-79
2023/10/03 01:39:38;;;;;;;20.40;17.30;;;18.30;90.20;;;;;;4998798;28;20214;-81
2023/10/03 01:42:07;;;;;;;22.07;17.53;;;18.30;90.20;;;;;;4984068;28;20657;-79
2023/10/03 01:44:34;;;;;;;21.00;17.77;;;18.20;90.10;;;;;;4998313;28;20235;-79
2023/10/03 01:47:03;;;;;;;24.70;17.67;;;18.20;90.00;;;;;;4981043;28;20218;-79
2023/10/03 01:49:35;;;;;;;20.53;16.20;;;18.20;90.00;;;;;;4971533;28;20492;-79
2023/10/03 01:52:06;;;;;;;22.07;15.60;;;18.20;90.00;;;;;;4982364;28;20235;-79
2023/10/03 01:54:34;;;;;;;23.53;15.50;;;18.10;90.00;;;;;;4990873;28;20209;-79
2023/10/03 01:57:02;;;;;;;16.13;14.53;;;18.10;90.00;;;;;;4984544;28;20527;-79
2023/10/03 01:59:30;;;;;;;19.87;16.43;;;18.10;90.10;;;;;;4974525;28;20299;-79
2023/10/03 02:01:58;;;;;;;22.27;17.83;;;18.10;90.20;;;;;;5004062;28;20687;-79
2023/10/03 02:04:28;;;;;;;27.07;21.17;;;18.10;90.30;;;;;;4997305;28;20199;-79
2023/10/03 02:07:02;;;;;;;27.30;19.00;;;18.10;90.40;;;;;;4976709;28;20696;-79
2023/10/03 02:09:29;;;;;;;24.80;20.17;;;18.10;90.50;;;;;;4988437;28;20202;-79
2023/10/03 02:11:59;;;;;;;24.87;19.60;;;18.10;90.50;;;;;;4993853;28;20263;-79
2023/10/03 02:14:39;;;;;;;25.90;20.53;;;18.10;90.50;;;;;;4988108;28;20599;-79
2023/10/03 02:17:17;;;;;;;23.07;20.57;;;18.10;90.70;;;;;;4982908;28;20207;-79
2023/10/03 02:19:59;;;;;;;26.30;20.73;;;18.10;90.40;;;;;;4989150;28;20240;-78
2023/10/03 02:22:31;;;;;;;25.77;21.73;;;18.10;90.40;;;;;;4983317;28;20285;-79
2023/10/03 02:25:01;;;;;;;28.13;20.70;;;18.00;90.50;;;;;;4970936;28;20211;-79
2023/10/03 02:27:29;;;;;;;23.17;20.73;;;18.00;90.50;;;;;;4984438;28;20216;-79
2023/10/03 02:29:58;;;;;;;27.17;22.00;;;18.00;90.40;;;;;;4982983;28;20209;-79
2023/10/03 02:32:26;;;;;;;28.30;22.53;;;18.00;90.40;;;;;;5000199;28;20230;-79
2023/10/03 02:34:54;;;;;;;27.27;23.77;;;18.00;90.40;;;;;;5009831;28;20264;-79
2023/10/03 02:37:40;;;;;;;28.70;23.40;;;18.00;90.40;;;;;;4995139;28;20248;-79
2023/10/03 02:40:08;;;;;;;30.07;23.37;;;18.00;90.40;;;;;;4992566;28;20271;-79
2023/10/03 02:42:39;;;;;;;25.00;22.37;;;18.00;90.50;;;;;;5002072;28;20206;-79
2023/10/03 02:45:09;;;;;;;28.27;24.27;;;18.00;90.50;;;;;;4971989;28;20252;-79
2023/10/03 02:47:47;;;;;;;28.17;24.73;;;18.00;90.50;;;;;;4986952;28;20206;-79
2023/10/03 02:50:17;;;;;;;30.73;26.57;;;18.00;90.50;;;;;;4985255;28;20304;-78
2023/10/03 02:52:45;;;;;;;33.50;24.90;;;18.00;90.50;;;;;;4979363;28;20230;-79
2023/10/03 02:55:19;;;;;;;27.03;24.00;;;17.90;90.50;;;;;;4999245;28;20264;-79
2023/10/03 02:57:51;;;;;;;28.10;24.90;;;17.90;90.40;;;;;;4971152;28;20691;-79
2023/10/03 03:00:19;;;;;;;29.70;26.03;;;17.90;90.40;;;;;;4970797;28;20257;-79
2023/10/03 03:02:50;;;;;;;29.83;26.57;;;17.90;90.40;;;;;;4985351;28;20238;-79
2023/10/03 03:05:23;;;;;;;30.20;25.60;;;17.90;90.30;;;;;;4966768;28;20256;-79
2023/10/03 03:07:59;;;;;;;29.13;25.83;;;17.90;90.30;;;;;;4994867;28;20208;-79
2023/10/03 03:10:38;;;;;;;28.10;25.13;;;17.90;90.20;;;;;;5000646;28;20211;-79
2023/10/03 03:13:07;;;;;;;30.17;26.40;;;17.90;90.30;;;;;;4998501;28;20226;-79
2023/10/03 03:16:06;;;;;;;28.70;25.33;;;17.90;90.20;;;;;;4991079;28;20216;-79
2023/10/03 03:18:41;;;;;;;31.60;26.60;;;17.90;90.20;;;;;;4999425;28;20204;-79
2023/10/03 03:21:15;;;;;;;31.83;26.93;;;17.90;90.20;;;;;;5000656;28;20245;-79
2023/10/03 03:26:47;;;;;;;29.73;26.50;;;17.80;90.10;;;;;;4969914;28;20303;-79
2023/10/03 03:29:35;;;;;;;30.90;26.73;;;17.80;90.20;;;;;;4995375;28;20302;-79
2023/10/03 03:32:04;;;;;;;34.60;27.83;;;17.80;90.20;;;;;;4977426;28;20212;-79
2023/10/03 03:34:32;;;;;;;31.77;28.67;;;17.80;90.20;;;;;;5005974;28;20218;-79
2023/10/03 03:37:21;;;;;;;31.53;27.87;;;17.80;90.20;;;;;;4984653;28;20227;-79
2023/10/03 03:39:56;;;;;;;31.73;26.40;;;17.70;90.20;;;;;;5002437;28;20237;-79
2023/10/03 03:42:26;;;;;;;30.47;26.13;;;17.70;90.30;;;;;;4985171;28;20269;-79
2023/10/03 03:44:54;;;;;;;31.33;27.13;;;17.70;90.30;;;;;;4995221;28;20202;-79
2023/10/03 03:47:22;;;;;;;33.00;29.37;;;17.70;90.40;;;;;;4984806;28;20670;-79
2023/10/03 03:49:51;;;;;;;29.47;26.20;;;17.70;90.40;;;;;;4979648;28;20211;-79
2023/10/03 03:52:18;;;;;;;30.80;27.50;;;17.60;90.30;;;;;;4982756;28;20201;-79
2023/10/03 03:54:49;;;;;;;33.87;29.70;;;17.60;90.30;;;;;;4975580;28;20442;-80
2023/10/03 03:57:16;;;;;;;30.43;27.13;;;17.60;90.30;;;;;;4982659;28;20460;-79
2023/10/03 03:59:50;;;;;;;30.77;27.57;;;17.60;90.30;;;;;;5001920;28;20219;-79
2023/10/03 04:02:18;;;;;;;33.13;29.50;;;17.60;90.20;;;;;;5002020;28;20243;-79
2023/10/03 04:04:46;;;;;;;35.03;29.60;;;17.50;90.30;;;;;;4981725;28;20198;-79
2023/10/03 04:07:17;;;;;;;31.60;28.30;;;17.50;90.30;;;;;;4984906;28;20257;-80
2023/10/03 04:09:58;;;;;;;34.50;28.80;;;17.50;90.40;;;;;;4983869;28;20618;-80
2023/10/03 04:12:42;;;;;;;30.83;26.83;;;17.50;90.50;;;;;;4985280;28;20271;-79
2023/10/03 04:15:15;;;;;;;40.20;29.80;;;17.50;90.50;;;;;;4982230;28;20208;-80
2023/10/03 04:17:42;;;;;;;34.67;28.50;;;17.50;90.50;;;;;;5007311;28;20618;-79
2023/10/03 04:20:30;;;;;;;28.77;25.77;;;17.40;90.50;;;;;;4979349;28;20216;-80
2023/10/03 04:23:07;;;;;;;33.83;28.10;;;17.40;90.50;;;;;;4994736;28;20213;-79
2023/10/03 04:25:47;;;;;;;40.73;29.97;;;17.40;90.50;;;;;;4994744;28;20791;-79
2023/10/03 04:28:16;;;;;;;32.17;28.13;;;17.40;90.50;;;;;;4998863;28;20275;-80
2023/10/03 04:30:44;;;;;;;35.00;28.37;;;17.40;90.50;;;;;;4980879;28;20631;-80
2023/10/03 04:33:17;;;;;;;40.57;28.63;;;17.40;90.50;;;;;;4982994;28;20222;-80
2023/10/03 04:35:50;;;;;;;33.70;28.63;;;17.40;90.50;;;;;;4980172;28;20197;-80
2023/10/03 04:38:18;;;;;;;31.07;27.67;;;17.30;90.50;;;;;;4983026;28;20308;-80
2023/10/03 04:40:47;;;;;;;34.30;28.60;;;17.30;90.50;;;;;;5000561;28;20193;-79
2023/10/03 04:43:17;;;;;;;33.27;27.73;;;17.30;90.50;;;;;;4977358;28;20221;-80
2023/10/03 04:45:52;;;;;;;32.33;28.00;;;17.30;90.60;;;;;;5005771;28;20267;-80
2023/10/03 04:48:24;;;;;;;41.33;28.90;;;17.30;90.60;;;;;;4982685;28;20570;-80
2023/10/03 04:50:59;;;;;;;28.57;25.50;;;17.20;90.60;;;;;;4985698;28;20321;-79
2023/10/03 04:53:27;;;;;;;34.37;30.13;;;17.20;90.60;;;;;;4994648;28;20206;-80
2023/10/03 04:56:04;;;;;;;32.67;27.90;;;17.20;90.50;;;;;;4998340;28;20201;-80
2023/10/03 04:58:38;;;;;;;34.70;27.80;;;17.20;90.40;;;;;;4962610;28;20218;-80
2023/10/03 05:11:05;;;;;;;33.30;26.77;;;17.10;90.50;;;;;;4973500;28;20225;-80
2023/10/03 05:13:45;;;;;;;31.83;26.33;;;17.00;90.50;;;;;;4982402;28;20210;-80
2023/10/03 05:16:21;;;;;;;33.10;26.30;;;17.00;90.50;;;;;;5002053;28;20214;-79
2023/10/03 05:18:48;;;;;;;33.70;27.30;;;17.00;90.60;;;;;;4971261;28;20213;-79
2023/10/03 05:21:48;;;;;;;35.77;24.97;;;17.00;90.60;;;;;;5002403;28;20212;-78
2023/10/03 05:24:16;;;;;;;34.37;25.17;;;17.00;90.60;;;;;;4997894;28;20274;-79
2023/10/03 05:26:59;;;;;;;33.70;25.23;;;17.00;90.60;;;;;;4979276;28;20598;-79
2023/10/03 05:29:46;;;;;;;31.13;25.47;;;17.00;90.60;;;;;;4998456;28;20302;-80
2023/10/03 05:32:17;;;;;;;33.87;24.87;;;17.00;90.60;;;;;;4983278;28;20220;-79
2023/10/03 05:35:07;;;;;;;27.63;24.17;;;17.00;90.60;;;;;;4980696;28;20280;-80
2023/10/03 05:37:35;;;;;;;36.60;23.53;;;17.00;90.60;;;;;;4959737;28;20212;-79
2023/10/03 05:40:12;;;;;;;34.83;24.33;;;17.00;90.60;;;;;;4995077;28;20211;-78
2023/10/03 05:42:41;;;;;;;35.43;23.53;;;17.10;90.70;;;;;;4980356;28;20216;-79
2023/10/03 05:45:13;;;;;;;30.67;22.60;;;17.20;90.60;;;;;;4972311;28;20207;-80
2023/10/03 05:47:49;;;;;;;31.60;22.33;;;17.40;90.30;;;;;;4994756;28;20731;-79
2023/10/03 05:50:58;;;;;;;32.53;22.80;;;17.50;90.10;;;;;;4978181;28;20711;-79
2023/10/03 05:53:41;;;;;;;29.93;21.67;;;17.50;90.00;;;;;;4981706;28;20222;-79
2023/10/03 05:56:10;;;;;;;23.73;20.57;;;17.50;89.90;;;;;;4992710;28;20211;-79
2023/10/03 05:58:38;;;;;;;31.63;22.13;;;17.50;89.90;;;;;;4960440;28;20207;-78
2023/10/03 06:01:25;;;;;;;27.93;22.50;;;17.60;90.00;;;;;;4980782;28;20196;-78
2023/10/03 06:04:02;;;;;;;34.97;23.13;;;17.60;90.00;;;;;;4992432;28;20642;-78
2023/10/03 06:06:32;;;;;;;34.83;23.10;;;17.70;89.90;;;;;;4988771;28;20206;-80
2023/10/03 06:09:18;;;;;;;33.87;22.93;;;17.70;89.80;;;;;;4980279;28;20369;-78
2023/10/03 06:11:53;;;;;;;28.47;22.87;;;17.70;89.80;;;;;;4993467;28;20656;-78
2023/10/03 06:14:29;;;;;;;30.10;22.53;;;17.90;89.70;;;;;;4968678;28;20228;-78
2023/10/03 06:17:07;;;;;;;29.93;22.63;;;18.00;89.60;;;;;;4992075;28;20199;-80
2023/10/03 06:19:35;;;;;;;26.77;23.60;;;18.00;89.60;;;;;;4961915;28;20288;-80
2023/10/03 06:22:12;;;;;;;30.07;24.40;;;18.10;89.60;;;;;;4987799;28;20269;-80
2023/10/03 06:24:50;;;;;;;32.37;25.33;;;18.20;89.70;;;;;;5000670;28;20599;-79
2023/10/03 06:27:18;;;;;;;37.13;26.37;;;18.30;89.50;;;;;;4995445;28;20224;-79
2023/10/03 06:30:08;;;;;;;29.90;26.03;;;18.40;89.40;;;;;;4984394;28;20215;-79
2023/10/03 06:32:36;;;;;;;33.73;26.87;;;18.40;89.40;;;;;;4977077;28;20304;-79
2023/10/03 06:35:05;;;;;;;34.87;26.67;;;18.50;89.30;;;;;;4985240;28;20291;-80
2023/10/03 06:37:40;;;;;;;32.43;25.97;;;18.60;89.40;;;;;;4984519;28;20700;-79
2023/10/03 06:40:08;;;;;;;36.37;26.07;;;18.70;89.20;;;;;;4997926;28;20222;-79
2023/10/03 06:43:09;;;;;;;30.83;25.30;;;18.70;89.10;;;;;;4987054;28;20227;-79
2023/10/03 06:45:37;;;;;;;26.17;21.30;;;18.80;89.00;;;;;;4970411;28;20305;-79
2023/10/03 06:48:09;;;;;;;28.90;21.83;;;18.90;88.80;;;;;;4977389;28;20641;-80
2023/10/03 06:50:43;;;;;;;26.93;20.83;;;18.90;88.60;;;;;;5007531;28;20208;-80
2023/10/03 06:53:23;;;;;;;21.90;19.70;;;19.00;88.20;;;;;;4999034;28;20621;-79
2023/10/03 06:56:20;;;;;;;20.20;17.83;;;19.10;88.10;;;;;;5003138;28;20645;-79
2023/10/03 06:58:54;;;;;;;18.67;16.87;;;19.20;87.80;;;;;;4973386;28;20263;-80
2023/10/03 07:01:26;;;;;;;19.13;16.57;;;19.30;87.40;;;;;;4986797;28;20212;-80
2023/10/03 07:04:16;;;;;;;20.73;15.93;;;19.30;87.10;;;;;;4954151;28;20280;-79
2023/10/03 07:07:11;;;;;;;19.80;17.03;;;19.50;86.80;;;;;;4993512;28;20345;-79
2023/10/03 07:09:44;;;;;;;21.83;16.43;;;19.60;86.30;;;;;;4967503;28;20280;-78
2023/10/03 07:12:35;;;;;;;23.27;17.90;;;19.70;86.10;;;;;;4971593;28;20658;-78
2023/10/03 07:15:08;;;;;;;21.50;17.87;;;19.90;85.90;;;;;;4993937;28;20689;-80
2023/10/03 07:17:38;;;;;;;25.43;19.80;;;20.00;85.80;;;;;;4967342;28;20211;-79
2023/10/03 07:20:24;;;;;;;21.63;19.00;;;20.10;85.50;;;;;;4975439;28;20198;-78
2023/10/03 07:22:54;;;;;;;23.30;19.27;;;20.30;85.00;;;;;;4994139;28;20201;-78
2023/10/03 07:25:33;;;;;;;23.17;19.30;;;20.40;84.20;;;;;;4983239;28;20288;-79
2023/10/03 07:28:07;;;;;;;28.40;20.50;;;20.50;83.90;;;;;;4985449;28;20282;-79
2023/10/03 07:30:50;;;;;;;25.43;22.60;;;20.70;83.50;;;;;;5000703;28;20275;-78
2023/10/03 07:33:19;;;;;;;24.37;20.77;;;20.80;83.20;;;;;;4976754;28;20217;-79
2023/10/03 07:35:56;;;;;;;31.90;22.30;;;20.90;83.00;;;;;;4976579;28;20301;-79
2023/10/03 07:38:30;;;;;;;30.90;25.40;;;21.10;82.50;;;;;;4981485;28;20291;-79
2023/10/03 07:40:58;;;;;;;33.63;27.70;;;21.20;82.10;;;;;;4976307;28;20670;-79
2023/10/03 07:43:33;;;;;;;45.47;29.30;;;21.30;81.40;;;;;;4985813;28;20204;-79
2023/10/03 07:46:19;;;;;;;36.27;29.00;;;21.50;81.00;;;;;;4975295;28;20377;-78
2023/10/03 07:48:55;;;;;;;36.93;32.33;;;21.60;80.80;;;;;;4984357;28;20730;-79
2023/10/03 07:51:26;;;;;;;35.63;31.80;;;21.70;80.20;;;;;;4987308;28;20201;-79
2023/10/03 07:53:56;;;;;;;44.47;34.30;;;21.90;79.80;;;;;;4978870;28;20213;-78
2023/10/03 07:56:38;;;;;;;37.60;32.87;;;22.00;79.40;;;;;;4978056;28;20518;-78
2023/10/03 07:59:25;;;;;;;41.00;32.60;;;22.20;79.10;;;;;;4987547;28;20241;-79
2023/10/03 08:02:04;;;;;;;40.23;32.77;;;22.30;78.80;;;;;;4969135;28;20198;-78
2023/10/03 08:04:46;;;;;;;38.07;32.97;;;22.40;78.40;;;;;;4989003;28;20206;-78
2023/10/03 08:07:35;;;;;;;40.63;34.70;;;22.70;77.90;;;;;;4973694;28;20243;-79
2023/10/03 08:10:16;;;;;;;46.47;36.07;;;22.80;77.10;;;;;;4974520;28;20265;-79
2023/10/03 08:12:47;;;;;;;41.17;35.67;;;23.00;76.50;;;;;;4992445;28;20244;-79
2023/10/03 08:15:23;;;;;;;40.87;36.67;;;23.20;76.30;;;;;;4981585;28;20690;-79
2023/10/03 08:17:56;;;;;;;39.40;35.27;;;23.30;75.30;;;;;;4982875;28;20216;-79
2023/10/03 08:20:53;;;;;;;39.30;35.20;;;23.40;75.30;;;;;;4996379;28;20185;-79
2023/10/03 08:23:30;;;;;;;41.17;36.83;;;23.60;75.10;;;;;;4984573;28;20703;-79
2023/10/03 08:26:13;;;;;;;53.80;39.00;;;23.80;74.80;;;;;;4979306;28;20213;-78
2023/10/03 08:29:03;;;;;;;47.73;37.90;;;23.90;74.30;;;;;;4975857;28;20205;-78
2023/10/03 08:31:38;;;;;;;43.57;38.30;;;24.10;73.20;;;;;;4966375;28;20203;-79
2023/10/03 08:34:10;;;;;;;43.30;35.50;;;24.10;72.40;;;;;;4981269;28;20230;-78
2023/10/03 08:36:46;;;;;;;42.43;37.27;;;24.20;72.60;;;;;;4981955;28;20200;-79
2023/10/03 08:39:16;;;;;;;41.43;37.07;;;24.20;72.50;;;;;;4985898;28;20211;-78
2023/10/03 08:45:27;;;;;;;46.03;37.30;;;24.50;72.20;;;;;;4969291;28;20221;-78
2023/10/03 08:47:57;;;;;;;41.40;37.07;;;24.60;71.70;;;;;;4995640;28;20231;-79
2023/10/03 08:50:34;;;;;;;44.53;39.77;;;24.80;71.20;;;;;;4992839;28;20200;-79
2023/10/03 08:53:26;;;;;;;45.57;38.70;;;24.90;70.90;;;;;;4977614;28;20206;-78
2023/10/03 08:56:05;;;;;;;47.07;40.50;;;25.00;70.70;;;;;;4974520;28;20292;-80
2023/10/03 08:58:50;;;;;;;42.23;37.63;;;25.00;69.90;;;;;;4996315;28;20212;-79
2023/10/03 09:01:33;;;;;;;43.97;38.27;;;25.10;70.00;;;;;;4979135;28;20218;-79
2023/10/03 09:04:27;;;;;;;45.27;38.97;;;25.10;69.90;;;;;;4988294;28;20251;-79
2023/10/03 09:07:09;;;;;;;43.30;38.77;;;25.10;69.80;;;;;;4985111;28;20216;-79
2023/10/03 09:09:45;;;;;;;48.33;40.43;;;25.30;69.70;;;;;;4997416;28;20216;-79
2023/10/03 09:12:20;;;;;;;47.13;39.07;;;25.40;69.50;;;;;;4982203;28;20713;-78
2023/10/03 09:15:10;;;;;;;49.20;42.17;;;25.60;69.40;;;;;;4986110;28;20292;-79
2023/10/03 09:17:37;;;;;;;42.77;37.83;;;25.70;68.90;;;;;;4998554;28;20219;-80
2023/10/03 09:20:08;;;;;;;45.40;38.70;;;25.80;68.50;;;;;;4986001;28;20200;-79
2023/10/03 09:22:41;;;;;;;47.50;37.40;;;25.90;68.20;;;;;;4982031;28;20207;-79
2023/10/03 09:25:11;;;;;;;48.63;39.67;;;26.00;67.90;;;;;;4993231;28;20595;-78
2023/10/03 09:28:03;;;;;;;50.30;41.20;;;26.10;67.30;;;;;;4985449;28;20641;-79
2023/10/03 09:30:50;;;;;;;42.80;37.90;;;26.20;66.60;;;;;;4984706;28;20219;-80
2023/10/03 09:33:33;;;;;;;40.93;36.90;;;26.30;66.40;;;;;;4976122;28;20207;-80
2023/10/03 09:36:28;;;;;;;47.70;37.97;;;26.20;66.50;;;;;;4975578;28;20219;-79
2023/10/03 09:40:00;;;;;;;42.00;37.60;;;26.30;66.80;;;;;;4974691;28;20646;-78
2023/10/03 09:42:39;;;;;;;46.93;40.33;;;26.30;66.00;;;;;;4990863;28;20227;-79
2023/10/03 09:45:16;;;;;;;41.57;36.93;;;26.30;65.80;;;;;;4999354;28;20226;-79
2023/10/03 09:48:12;;;;;;;45.27;37.83;;;26.30;66.20;;;;;;4967772;28;20290;-80
2023/10/03 09:51:05;;;;;;;44.23;37.40;;;26.40;66.40;;;;;;4978923;28;20212;-79
2023/10/03 09:53:36;;;;;;;44.67;38.97;;;26.50;66.60;;;;;;4985764;28;20208;-78
2023/10/03 09:56:13;;;;;;;42.73;38.03;;;26.60;66.20;;;;;;4994001;28;20217;-78
2023/10/03 09:58:46;;;;;;;42.30;37.83;;;26.70;65.30;;;;;;4982022;28;20231;-82
2023/10/03 10:01:30;;;;;;;45.63;38.37;;;26.80;65.50;;;;;;4988688;28;20217;-80
2023/10/03 10:04:35;;;;;;;43.63;38.90;;;26.90;65.70;;;;;;4985766;28;20216;-78
2023/10/03 10:07:27;;;;;;;47.47;37.77;;;27.10;65.40;;;;;;4968816;28;20301;-80
2023/10/03 10:10:25;;;;;;;41.93;37.73;;;27.20;65.20;;;;;;4992561;28;20227;-79
2023/10/03 10:13:23;;;;;;;45.43;40.60;;;27.40;64.40;;;;;;4965024;28;20249;-79
2023/10/03 10:16:13;;;;;;;44.00;39.33;;;27.50;63.50;;;;;;4962410;28;20549;-78
2023/10/03 10:19:01;;;;;;;44.90;39.07;;;27.50;63.30;;;;;;4978089;28;20196;-79
2023/10/03 10:21:36;;;;;;;42.73;38.23;;;27.50;63.10;;;;;;4978894;28;20205;-78
2023/10/03 10:24:20;;;;;;;42.63;38.37;;;27.50;63.50;;;;;;4965881;28;20212;-80
2023/10/03 10:26:59;;;;;;;41.53;36.90;;;27.60;63.60;;;;;;4949668;28;20205;-77
2023/10/03 10:29:59;;;;;;;43.93;37.90;;;27.70;63.60;;;;;;4961086;28;20206;-79
2023/10/03 10:32:52;;;;;;;40.10;34.23;;;27.80;62.80;;;;;;4960601;28;20628;-79
2023/10/03 10:35:55;;;;;;;41.37;36.97;;;27.90;62.70;;;;;;4977214;28;20228;-79
2023/10/03 10:38:47;;;;;;;;;;;;;;;;;;;;;
2023/10/03 10:41:29;;;;;;;40.23;35.27;;;28.10;61.90;;;;;;4975778;28;20253;-79
2023/10/03 10:44:21;;;;;;;40.40;35.10;;;28.20;61.70;;;;;;4956237;28;20226;-79
2023/10/03 10:47:05;;;;;;;40.00;34.27;;;28.20;62.10;;;;;;4952354;28;20202;-79
2023/10/03 10:50:01;;;;;;;40.57;33.40;;;28.20;61.50;;;;;;4966766;28;20711;-78
2023/10/03 10:52:56;;;;;;;40.67;33.60;;;28.30;61.40;;;;;;4976709;28;20209;-79
2023/10/03 10:55:32;;;;;;;31.13;27.30;;;28.20;61.30;;;;;;4970345;28;20232;-80
2023/10/03 10:58:12;;;;;;;34.37;26.03;;;28.30;60.90;;;;;;4943945;29;20260;-80
2023/10/03 11:00:58;;;;;;;32.30;28.63;;;28.30;60.50;;;;;;4960471;28;20290;-78
2023/10/03 11:03:35;;;;;;;35.13;28.43;;;28.30;60.20;;;;;;4973740;28;20236;-80
2023/10/03 11:06:23;;;;;;;33.77;26.43;;;28.40;60.50;;;;;;4976904;28;20273;-80
2023/10/03 11:08:53;;;;;;;35.13;25.60;;;28.50;60.90;;;;;;4966322;28;20257;-79
2023/10/03 11:11:47;;;;;;;35.40;26.97;;;28.60;60.30;;;;;;4974573;28;20244;-79
2023/10/03 11:14:49;;;;;;;30.63;25.90;;;28.60;59.60;;;;;;4958593;28;20208;-79
2023/10/03 11:17:25;;;;;;;31.07;24.10;;;28.60;59.40;;;;;;4999391;28;20550;-79
2023/10/03 11:20:08;;;;;;;26.20;21.43;;;28.70;60.00;;;;;;4983956;28;20205;-79
2023/10/03 11:22:47;;;;;;;28.77;22.30;;;28.80;60.10;;;;;;4961446;28;20266;-79
2023/10/03 11:25:29;;;;;;;32.43;23.87;;;29.00;59.50;;;;;;4993658;28;20220;-78
2023/10/03 11:28:24;;;;;;;29.90;26.53;;;29.00;59.50;;;;;;4972524;28;20239;-79
2023/10/03 11:31:18;;;;;;;31.17;27.97;;;29.10;59.30;;;;;;4989119;28;20219;-79
2023/10/03 11:34:11;;;;;;;45.20;28.80;;;29.20;58.90;;;;;;4986667;28;20214;-80
2023/10/03 11:36:54;;;;;;;32.33;27.97;;;29.10;58.20;;;;;;4974641;28;20204;-81
2023/10/03 11:39:23;;;;;;;32.70;23.67;;;29.20;58.50;;;;;;4978231;28;20212;-80
2023/10/03 11:42:03;;;;;;;28.03;22.30;;;29.20;58.30;;;;;;5001554;28;20200;-79
2023/10/03 11:44:32;;;;;;;27.50;23.03;;;29.30;58.00;;;;;;4984558;28;20230;-81
2023/10/03 11:47:22;;;;;;;31.77;23.80;;;29.30;58.20;;;;;;4996953;28;20207;-79
2023/10/03 11:49:50;;;;;;;22.20;19.93;;;29.40;58.40;;;;;;5000981;28;20199;-79
2023/10/03 11:52:22;;;;;;;36.67;23.70;;;29.40;58.00;;;;;;5005269;28;20216;-80
2023/10/03 11:54:56;;;;;;;24.30;21.80;;;29.40;57.70;;;;;;4982941;28;20594;-79
2023/10/03 11:57:24;;;;;;;24.57;20.43;;;29.50;57.70;;;;;;5002468;28;20204;-80
2023/10/03 12:00:28;;;;;;;23.10;19.80;;;29.50;57.40;;;;;;4993051;28;20225;-79
2023/10/03 12:03:03;;;;;;;22.37;20.07;;;29.50;57.40;;;;;;4997776;28;20201;-79
2023/10/03 12:05:46;;;;;;;26.13;19.83;;;29.50;56.80;;;;;;4984465;28;20242;-80
2023/10/03 12:08:23;;;;;;;24.37;21.33;;;29.60;57.20;;;;;;5000376;28;20199;-81
2023/10/03 12:10:53;;;;;;;24.20;20.30;;;29.60;56.90;;;;;;5006306;28;20298;-79
2023/10/03 12:13:30;;;;;;;21.77;17.73;;;29.70;56.30;;;;;;4992320;28;20280;-78
2023/10/03 12:16:04;;;;;;;25.53;17.83;;;29.70;56.60;;;;;;4997649;28;20276;-78
2023/10/03 12:19:07;;;;;;;23.17;17.50;;;29.80;57.00;;;;;;4978593;28;20209;-80
2023/10/03 12:21:44;;;;;;;21.70;18.20;;;29.90;57.20;;;;;;4985480;28;20303;-79
2023/10/03 12:24:12;;;;;;;18.53;16.73;;;30.00;56.60;;;;;;4974750;28;20205;-80
2023/10/03 12:26:40;;;;;;;19.47;17.20;;;30.00;56.50;;;;;;4975596;28;20275;-79
2023/10/03 12:29:09;;;;;;;26.53;18.77;;;30.00;56.50;;;;;;4980664;28;20217;-80
2023/10/03 12:31:36;;;;;;;18.73;15.80;;;30.00;56.40;;;;;;4984563;28;20207;-79
2023/10/03 12:34:03;;;;;;;23.40;16.00;;;30.10;56.20;;;;;;5000241;28;20707;-78
2023/10/03 12:36:34;;;;;;;20.00;15.77;;;30.10;56.20;;;;;;4993835;28;20304;-79
2023/10/03 12:39:10;;;;;;;22.43;20.07;;;30.10;55.90;;;;;;4984001;28;20606;-79
2023/10/03 12:41:39;;;;;;;19.90;17.57;;;30.10;55.40;;;;;;4974549;28;20640;-80
2023/10/03 12:44:57;;;;;;;22.23;16.47;;;30.00;55.60;;;;;;4955529;28;20201;-79
2023/10/03 12:49:03;;;;;;;20.80;15.27;;;30.00;56.00;;;;;;4983222;28;20191;-79
2023/10/03 12:53:10;;;;;;;20.23;15.10;;;30.10;56.20;;;;;;4981113;28;20271;-79
2023/10/03 12:56:27;;;;;;;22.63;16.20;;;30.10;55.70;;;;;;4981323;28;20597;-79
2023/10/03 12:58:57;;;;;;;17.23;15.23;;;30.00;54.70;;;;;;4970225;28;20276;-79
2023/10/03 13:01:24;;;;;;;20.90;15.10;;;29.90;54.00;;;;;;4994723;28;20238;-79
2023/10/03 13:03:52;;;;;;;18.37;15.33;;;29.80;54.30;;;;;;4955679;28;20581;-82
2023/10/03 13:06:19;;;;;;;17.57;15.63;;;29.70;54.60;;;;;;4982454;28;20624;-79
2023/10/03 13:08:47;;;;;;;16.40;14.70;;;29.70;54.70;;;;;;4986855;28;20588;-79
2023/10/03 13:11:14;;;;;;;21.67;13.70;;;29.60;54.80;;;;;;4983605;28;20563;-79
2023/10/03 13:13:43;;;;;;;17.83;14.60;;;29.50;55.20;;;;;;4956905;28;20260;-81
2023/10/03 13:16:13;;;;;;;23.20;13.50;;;29.50;55.70;;;;;;4974436;28;20223;-79
2023/10/03 13:18:40;;;;;;;18.23;15.43;;;29.40;56.00;;;;;;4974964;28;20520;-79
2023/10/03 13:21:07;;;;;;;16.73;14.50;;;29.40;55.60;;;;;;4985195;28;20308;-79
2023/10/03 13:23:35;;;;;;;14.93;13.33;;;29.40;55.40;;;;;;4989491;28;20993;-79
2023/10/03 13:26:02;;;;;;;17.10;11.07;;;29.30;55.00;;;;;;4983046;28;20287;-80
2023/10/03 13:28:30;;;;;;;16.23;12.57;;;29.30;55.50;;;;;;4991632;28;20299;-80
2023/10/03 13:30:58;;;;;;;19.73;11.93;;;29.30;55.70;;;;;;4982420;28;20205;-80
2023/10/03 13:33:26;;;;;;;17.20;12.53;;;29.20;55.30;;;;;;4989915;28;20209;-80
2023/10/03 13:35:54;;;;;;;20.07;12.67;;;29.10;54.70;;;;;;4983059;28;20232;-80
2023/10/03 13:38:21;;;;;;;13.37;10.93;;;29.10;55.00;;;;;;4976302;28;20206;-80
2023/10/03 13:40:50;;;;;;;14.50;13.00;;;29.10;55.00;;;;;;4977220;28;20197;-80